Time;durP1;ratioP1;P1;durP2;ratioP2;P2;SDS_P1;SDS_P2;PMS_P1;PMS_P2;Temp;Humidity;BMP_temperature;BMP_pressure;BME280_temperature;BME280_humidity;BME280_pressure;Samples;Min_cycle;Max_cycle;Signal;HPM_P1;HPM_P2
2022/04/23 00:01:54;;;;;;;14.40;8.88;;;11.90;99.90;;;;;;4988154;28;20100;-74
2022/04/23 00:04:20;;;;;;;13.32;9.55;;;12.00;99.90;;;;;;4996951;28;20042;-73
2022/04/23 00:06:46;;;;;;;13.35;9.68;;;12.00;99.90;;;;;;5024900;28;20043;-73
2022/04/23 00:09:11;;;;;;;13.98;8.75;;;11.90;99.90;;;;;;5024789;28;20065;-73
2022/04/23 00:11:37;;;;;;;13.27;8.38;;;11.90;99.90;;;;;;4992487;28;20438;-73
2022/04/23 00:14:07;;;;;;;12.57;8.23;;;12.00;99.90;;;;;;4994305;28;20042;-74
2022/04/23 00:16:33;;;;;;;12.50;8.70;;;11.90;99.90;;;;;;5011760;28;20402;-73
2022/04/23 00:18:59;;;;;;;13.27;8.23;;;12.00;99.90;;;;;;4993382;28;20042;-73
2022/04/23 00:21:24;;;;;;;15.13;8.23;;;12.00;99.90;;;;;;5008288;28;20058;-73
2022/04/23 00:23:50;;;;;;;11.60;7.78;;;12.00;99.90;;;;;;4992409;28;20422;-73
2022/04/23 00:26:16;;;;;;;13.45;8.13;;;12.00;99.90;;;;;;5012300;28;20046;-74
2022/04/23 00:28:42;;;;;;;11.77;7.43;;;11.90;99.90;;;;;;5015333;28;20038;-74
2022/04/23 00:31:07;;;;;;;11.77;7.95;;;12.00;99.90;;;;;;4999042;28;20038;-74
2022/04/23 00:33:39;;;;;;;10.85;7.13;;;11.90;99.90;;;;;;5005360;28;20097;-73
2022/04/23 00:36:10;;;;;;;10.75;6.60;;;11.80;99.90;;;;;;4995713;28;20045;-73
2022/04/23 00:38:39;;;;;;;11.88;7.57;;;11.70;99.90;;;;;;5004876;28;20053;-73
2022/04/23 00:41:05;;;;;;;12.45;7.50;;;11.90;99.90;;;;;;4979792;28;20038;-73
2022/04/23 00:43:34;;;;;;;10.70;7.38;;;11.70;99.90;;;;;;4987547;28;20405;-73
2022/04/23 00:46:00;;;;;;;13.18;6.95;;;11.80;99.90;;;;;;4998740;28;20041;-73
2022/04/23 00:48:26;;;;;;;11.73;7.30;;;11.80;99.90;;;;;;4991431;28;20065;-73
2022/04/23 00:50:55;;;;;;;12.75;7.43;;;11.70;99.90;;;;;;5011910;28;20135;-73
2022/04/23 00:53:21;;;;;;;12.32;7.40;;;11.60;99.90;;;;;;4992877;28;20402;-74
2022/04/23 00:55:47;;;;;;;11.98;7.53;;;11.50;99.90;;;;;;4986185;28;20034;-74
2022/04/23 00:58:17;;;;;;;10.95;6.80;;;11.60;99.90;;;;;;5010382;28;20093;-73
2022/04/23 01:00:43;;;;;;;13.32;8.00;;;11.60;99.90;;;;;;5008483;28;20084;-73
2022/04/23 01:03:12;;;;;;;11.55;7.65;;;11.50;99.90;;;;;;4995079;28;20503;-74
2022/04/23 01:05:40;;;;;;;13.60;7.70;;;11.40;99.90;;;;;;5011512;28;20085;-74
2022/04/23 01:08:06;;;;;;;12.73;8.65;;;11.20;99.90;;;;;;5027593;28;20057;-74
2022/04/23 01:10:33;;;;;;;13.65;7.57;;;11.30;99.90;;;;;;5008434;28;20052;-73
2022/04/23 01:12:59;;;;;;;11.30;7.47;;;11.40;99.90;;;;;;5003455;28;20061;-74
2022/04/23 01:15:25;;;;;;;11.57;7.95;;;11.40;99.90;;;;;;5011231;28;20042;-74
2022/04/23 01:17:51;;;;;;;10.68;7.60;;;11.40;99.90;;;;;;5004203;28;20430;-74
2022/04/23 01:20:16;;;;;;;12.15;7.93;;;11.30;99.90;;;;;;4986429;28;20426;-74
2022/04/23 01:22:44;;;;;;;12.88;8.27;;;11.30;99.90;;;;;;5002330;28;20119;-73
2022/04/23 01:25:12;;;;;;;14.18;8.45;;;11.20;99.90;;;;;;5014384;28;20053;-73
2022/04/23 01:27:42;;;;;;;12.68;8.10;;;11.20;99.90;;;;;;4991132;28;20483;-73
2022/04/23 01:30:12;;;;;;;12.90;8.23;;;11.30;99.90;;;;;;4988405;28;20048;-73
2022/04/23 01:32:38;;;;;;;13.98;8.85;;;11.20;99.90;;;;;;5007718;28;20184;-73
2022/04/23 01:35:05;;;;;;;14.82;8.80;;;11.10;99.90;;;;;;5027372;28;20569;-73
2022/04/23 01:37:31;;;;;;;12.70;9.57;;;11.10;99.90;;;;;;4998763;28;20034;-73
2022/04/23 01:39:57;;;;;;;12.05;8.32;;;11.00;99.90;;;;;;5002458;28;20038;-73
2022/04/23 01:42:23;;;;;;;13.57;9.30;;;11.00;99.90;;;;;;4997924;28;20164;-73
2022/04/23 01:44:51;;;;;;;13.38;8.90;;;10.90;99.90;;;;;;4998003;28;20050;-73
2022/04/23 01:47:17;;;;;;;13.60;8.88;;;10.90;99.90;;;;;;5011486;28;20042;-73
2022/04/23 01:49:46;;;;;;;13.38;8.45;;;10.80;99.90;;;;;;4983922;28;20042;-73
2022/04/23 01:52:13;;;;;;;15.48;9.48;;;11.00;99.90;;;;;;4997152;28;20479;-74
2022/04/23 01:54:38;;;;;;;12.80;8.73;;;10.90;99.90;;;;;;4999271;28;20089;-73
2022/04/23 01:57:05;;;;;;;14.95;9.57;;;10.90;99.90;;;;;;5007386;28;20038;-73
2022/04/23 01:59:30;;;;;;;13.88;8.70;;;10.80;99.90;;;;;;5010060;28;20398;-73
2022/04/23 02:01:57;;;;;;;13.75;8.85;;;10.80;99.90;;;;;;4993996;28;20096;-73
2022/04/23 02:04:22;;;;;;;15.23;9.98;;;10.80;99.90;;;;;;4993739;28;20087;-73
2022/04/23 02:06:48;;;;;;;14.60;9.15;;;10.70;99.90;;;;;;4977342;28;20042;-73
2022/04/23 02:09:14;;;;;;;14.77;9.85;;;10.70;99.90;;;;;;4993892;28;20529;-73
2022/04/23 02:11:40;;;;;;;14.77;8.90;;;10.70;99.90;;;;;;4988582;28;20475;-73
2022/04/23 02:14:06;;;;;;;13.05;9.07;;;10.70;99.90;;;;;;4989326;28;20026;-73
2022/04/23 02:16:32;;;;;;;14.00;9.88;;;10.80;99.90;;;;;;4993701;28;20038;-73
2022/04/23 02:18:58;;;;;;;15.82;9.63;;;10.90;99.90;;;;;;4991460;28;20038;-73
2022/04/23 02:21:25;;;;;;;16.33;9.38;;;10.70;99.90;;;;;;5029278;28;20521;-73
2022/04/23 02:23:53;;;;;;;13.52;9.75;;;10.80;99.90;;;;;;4993421;28;20120;-73
2022/04/23 02:26:22;;;;;;;15.25;9.93;;;10.70;99.90;;;;;;4995190;28;20042;-73
2022/04/23 02:28:51;;;;;;;15.65;9.77;;;10.60;99.90;;;;;;4992470;28;20048;-73
2022/04/23 02:31:17;;;;;;;16.08;10.27;;;10.60;99.90;;;;;;4997485;28;20030;-73
2022/04/23 02:33:44;;;;;;;14.45;9.75;;;10.50;99.90;;;;;;4974920;28;20080;-73
2022/04/23 02:36:11;;;;;;;14.80;9.93;;;10.50;99.90;;;;;;4994566;28;20038;-73
2022/04/23 02:38:41;;;;;;;14.23;9.02;;;10.50;99.90;;;;;;4994471;28;20486;-73
2022/04/23 02:41:09;;;;;;;16.95;9.95;;;10.50;99.90;;;;;;5003914;28;20034;-73
2022/04/23 02:43:38;;;;;;;16.55;10.07;;;10.40;99.90;;;;;;5008833;28;20034;-73
2022/04/23 02:46:04;;;;;;;13.88;10.05;;;10.60;99.90;;;;;;5026117;28;20560;-73
2022/04/23 02:48:30;;;;;;;14.98;9.98;;;10.40;99.90;;;;;;5019437;28;20038;-73
2022/04/23 02:50:55;;;;;;;17.02;10.50;;;10.40;99.90;;;;;;4996139;28;20072;-74
2022/04/23 02:53:21;;;;;;;16.95;9.57;;;10.40;99.90;;;;;;5009148;28;20037;-73
2022/04/23 02:55:46;;;;;;;18.10;10.57;;;10.30;99.90;;;;;;4993125;28;20474;-73
2022/04/23 02:58:12;;;;;;;16.05;10.38;;;10.30;99.90;;;;;;5021458;28;20037;-73
2022/04/23 03:00:42;;;;;;;14.98;10.40;;;10.40;99.90;;;;;;4992940;28;20042;-73
2022/04/23 03:03:09;;;;;;;15.02;9.98;;;10.30;99.90;;;;;;4993213;28;20038;-73
2022/04/23 03:05:35;;;;;;;15.13;10.45;;;10.40;99.90;;;;;;4993039;28;20042;-74
2022/04/23 03:08:02;;;;;;;15.90;9.85;;;10.20;99.90;;;;;;4976885;28;20046;-73
2022/04/23 03:10:29;;;;;;;13.27;9.13;;;10.30;99.90;;;;;;4977022;28;20398;-73
2022/04/23 03:12:57;;;;;;;16.48;10.65;;;10.30;99.90;;;;;;4992792;28;20100;-73
2022/04/23 03:15:26;;;;;;;14.85;9.80;;;10.20;99.90;;;;;;4992794;28;20111;-73
2022/04/23 03:18:05;;;;;;;15.48;10.23;;;10.20;99.90;;;;;;5025612;28;20086;-73
2022/04/23 03:20:32;;;;;;;15.52;10.52;;;10.20;99.90;;;;;;4976529;28;20050;-73
2022/04/23 03:22:57;;;;;;;14.32;9.85;;;10.10;99.90;;;;;;4992671;28;20111;-73
2022/04/23 03:25:23;;;;;;;14.00;9.88;;;10.10;99.90;;;;;;5010187;28;20120;-73
2022/04/23 03:27:49;;;;;;;14.30;10.63;;;10.10;99.90;;;;;;5005930;28;20048;-73
2022/04/23 03:30:15;;;;;;;13.73;10.05;;;10.10;99.90;;;;;;5025377;28;20117;-73
2022/04/23 03:32:42;;;;;;;16.20;10.32;;;10.00;99.90;;;;;;5012208;28;20041;-73
2022/04/23 03:35:08;;;;;;;14.23;9.77;;;9.90;99.90;;;;;;4996797;28;20042;-73
2022/04/23 03:37:34;;;;;;;15.95;10.68;;;10.00;99.90;;;;;;5008666;28;20038;-73
2022/04/23 03:40:00;;;;;;;14.30;10.35;;;9.90;99.90;;;;;;4976312;28;20491;-73
2022/04/23 03:42:26;;;;;;;16.45;9.88;;;9.90;99.90;;;;;;4995033;28;20080;-73
2022/04/23 03:44:51;;;;;;;14.35;10.05;;;9.90;99.90;;;;;;4999300;28;20046;-73
2022/04/23 03:47:17;;;;;;;15.27;10.73;;;10.10;99.90;;;;;;5025256;28;20049;-73
2022/04/23 03:49:43;;;;;;;15.77;9.82;;;10.10;99.90;;;;;;5024872;28;20038;-73
2022/04/23 03:52:10;;;;;;;14.52;10.43;;;9.90;99.90;;;;;;4976178;28;20049;-73
2022/04/23 03:54:36;;;;;;;15.02;10.75;;;9.90;99.90;;;;;;5015391;28;20068;-74
2022/04/23 03:57:02;;;;;;;14.77;9.73;;;9.80;99.90;;;;;;4997759;28;20046;-73
2022/04/23 03:59:29;;;;;;;15.57;11.13;;;9.90;99.90;;;;;;4976222;28;20039;-73
2022/04/23 04:01:55;;;;;;;13.50;9.65;;;9.70;99.90;;;;;;5026739;28;20042;-73
2022/04/23 04:04:21;;;;;;;14.32;10.70;;;9.80;99.90;;;;;;5012572;28;20118;-73
2022/04/23 04:06:46;;;;;;;13.68;9.75;;;10.00;99.90;;;;;;5029367;28;20038;-73
2022/04/23 04:09:12;;;;;;;13.93;9.57;;;10.00;99.90;;;;;;4985451;28;20125;-73
2022/04/23 04:14:22;;;;;;;13.45;9.68;;;9.90;99.90;;;;;;5001291;28;20457;-73
2022/04/23 04:16:49;;;;;;;14.07;10.82;;;9.90;99.90;;;;;;4999408;28;20124;-73
2022/04/23 04:19:15;;;;;;;14.60;10.88;;;9.70;99.90;;;;;;5013836;28;20046;-73
2022/04/23 04:21:43;;;;;;;13.70;9.82;;;9.60;99.90;;;;;;5006795;28;20043;-73
2022/04/23 04:24:12;;;;;;;13.68;9.75;;;9.70;99.90;;;;;;4981348;28;20045;-73
2022/04/23 04:26:39;;;;;;;15.00;10.00;;;9.70;99.90;;;;;;5002487;28;20433;-73
2022/04/23 04:29:05;;;;;;;14.15;9.40;;;9.60;99.90;;;;;;5028570;28;20154;-73
2022/04/23 04:34:28;;;;;;;12.48;9.98;;;9.70;99.90;;;;;;5016295;28;20046;-73
2022/04/23 04:37:11;;;;;;;13.52;9.85;;;9.50;99.90;;;;;;5001685;28;20046;-73
2022/04/23 04:39:37;;;;;;;;;;;9.60;99.90;;;;;;5028932;28;20121;-73
2022/04/23 04:42:04;;;;;;;13.95;9.60;;;9.70;99.90;;;;;;5011888;28;19918;-73
2022/04/23 04:44:30;;;;;;;13.35;10.20;;;9.60;99.90;;;;;;5001737;28;20554;-73
2022/04/23 04:46:56;;;;;;;13.70;10.13;;;9.60;99.90;;;;;;5015044;28;20069;-73
2022/04/23 04:49:24;;;;;;;13.38;9.25;;;9.60;99.90;;;;;;4996593;28;20030;-73
2022/04/23 04:51:51;;;;;;;12.20;9.57;;;9.60;99.90;;;;;;5011835;28;20121;-73
2022/04/23 04:54:18;;;;;;;14.60;9.95;;;9.60;99.90;;;;;;5013455;28;20427;-73
2022/04/23 04:56:47;;;;;;;12.70;8.93;;;9.60;99.90;;;;;;4985821;28;20045;-73
2022/04/23 04:59:13;;;;;;;14.48;10.68;;;9.70;99.90;;;;;;5011268;28;20052;-73
2022/04/23 05:01:39;;;;;;;13.18;9.70;;;9.60;99.90;;;;;;4998328;28;20054;-74
2022/04/23 05:04:04;;;;;;;13.25;9.55;;;9.70;99.90;;;;;;5011181;28;20383;-73
2022/04/23 05:06:30;;;;;;;14.00;10.07;;;9.60;99.90;;;;;;4979162;28;20042;-73
2022/04/23 05:08:55;;;;;;;13.25;9.95;;;9.70;99.90;;;;;;4978914;28;20057;-73
2022/04/23 05:11:21;;;;;;;15.35;10.40;;;9.60;99.90;;;;;;4978801;28;20046;-73
2022/04/23 05:13:47;;;;;;;14.90;11.43;;;9.60;99.90;;;;;;4994647;28;20042;-74
2022/04/23 05:16:13;;;;;;;12.68;9.73;;;9.50;99.90;;;;;;4978718;28;20510;-75
2022/04/23 05:18:38;;;;;;;13.30;10.38;;;9.70;99.90;;;;;;4978753;28;20395;-74
2022/04/23 05:21:04;;;;;;;15.27;11.07;;;9.60;99.90;;;;;;5027661;28;20058;-74
2022/04/23 05:23:31;;;;;;;14.45;10.10;;;9.70;99.90;;;;;;4978534;28;20053;-74
2022/04/23 05:25:56;;;;;;;13.93;9.82;;;9.70;99.90;;;;;;4994852;28;20050;-74
2022/04/23 05:28:22;;;;;;;12.18;8.57;;;9.70;99.90;;;;;;5011138;28;20410;-74
2022/04/23 05:30:48;;;;;;;14.98;10.55;;;9.70;99.90;;;;;;4994692;28;20096;-74
2022/04/23 05:33:13;;;;;;;15.35;11.07;;;9.70;99.90;;;;;;4978686;28;20489;-74
2022/04/23 05:35:39;;;;;;;13.02;10.60;;;9.70;99.90;;;;;;4997032;28;20041;-74
2022/04/23 05:38:05;;;;;;;13.90;9.88;;;9.70;99.90;;;;;;5013851;28;20034;-74
2022/04/23 05:40:32;;;;;;;14.63;11.25;;;9.60;99.90;;;;;;4997598;28;20120;-74
2022/04/23 05:42:58;;;;;;;13.15;10.00;;;9.60;99.90;;;;;;5003401;28;20054;-74
2022/04/23 05:45:29;;;;;;;14.30;10.50;;;9.70;99.90;;;;;;4994783;28;20461;-74
2022/04/23 05:47:55;;;;;;;13.13;9.40;;;9.70;99.90;;;;;;5014058;28;20494;-74
2022/04/23 05:50:22;;;;;;;13.98;10.07;;;9.70;99.90;;;;;;5009907;28;20046;-74
2022/04/23 05:52:47;;;;;;;14.48;11.25;;;9.80;99.90;;;;;;4978179;28;20046;-74
2022/04/23 05:55:13;;;;;;;16.00;11.50;;;9.70;99.90;;;;;;5028299;28;20047;-73
2022/04/23 05:57:39;;;;;;;16.02;10.60;;;9.80;99.90;;;;;;4985327;28;20092;-73
2022/04/23 06:00:07;;;;;;;13.10;10.52;;;9.80;99.90;;;;;;5013709;28;20425;-73
2022/04/23 06:02:33;;;;;;;13.27;10.55;;;9.80;99.90;;;;;;5000044;28;20061;-73
2022/04/23 06:04:59;;;;;;;14.07;10.27;;;9.90;99.90;;;;;;5026359;28;20038;-74
2022/04/23 06:07:24;;;;;;;14.00;10.82;;;10.10;99.90;;;;;;5012593;28;20046;-73
2022/04/23 06:09:50;;;;;;;13.15;10.02;;;10.10;99.90;;;;;;5001569;28;20045;-73
2022/04/23 06:12:16;;;;;;;14.70;10.90;;;10.10;99.90;;;;;;4983482;28;20045;-73
2022/04/23 06:14:41;;;;;;;14.55;10.23;;;10.00;99.90;;;;;;4981378;28;20085;-73
2022/04/23 06:17:10;;;;;;;13.82;9.65;;;10.10;99.90;;;;;;4992311;28;20491;-73
2022/04/23 06:19:36;;;;;;;12.65;9.93;;;10.30;99.90;;;;;;4993051;28;20042;-73
2022/04/23 06:22:02;;;;;;;13.70;10.05;;;10.40;99.90;;;;;;4986412;28;20494;-73
2022/04/23 06:24:27;;;;;;;14.35;10.55;;;10.30;99.90;;;;;;4984349;28;20070;-73
2022/04/23 06:26:53;;;;;;;15.20;11.20;;;10.50;99.90;;;;;;5025258;28;20038;-73
2022/04/23 06:29:18;;;;;;;13.57;10.07;;;10.50;99.90;;;;;;5025551;28;20399;-73
2022/04/23 06:31:44;;;;;;;15.18;10.38;;;10.50;99.90;;;;;;4976208;28;20522;-72
2022/04/23 06:34:10;;;;;;;14.88;10.60;;;10.50;99.90;;;;;;5014273;28;20404;-73
2022/04/23 06:36:36;;;;;;;15.00;10.20;;;10.60;99.90;;;;;;4962473;28;20121;-73
2022/04/23 06:39:03;;;;;;;14.93;9.82;;;10.70;99.90;;;;;;4997368;28;20565;-72
2022/04/23 06:41:28;;;;;;;15.25;10.65;;;10.80;99.90;;;;;;5020862;28;20081;-72
2022/04/23 06:43:54;;;;;;;16.38;11.52;;;10.90;99.90;;;;;;4992064;28;20066;-71
2022/04/23 06:46:20;;;;;;;15.30;10.85;;;11.00;99.90;;;;;;5005376;28;20050;-71
2022/04/23 06:48:45;;;;;;;13.48;10.38;;;11.00;99.90;;;;;;5002226;28;20533;-72
2022/04/23 06:51:11;;;;;;;14.20;10.93;;;11.00;99.90;;;;;;4976803;28;20049;-72
2022/04/23 06:53:36;;;;;;;12.95;9.65;;;11.10;99.90;;;;;;4962928;28;20499;-72
2022/04/23 06:56:03;;;;;;;13.73;10.57;;;11.10;99.90;;;;;;4989485;28;20038;-72
2022/04/23 06:58:29;;;;;;;14.23;11.30;;;11.20;99.90;;;;;;5024605;28;20062;-73
2022/04/23 07:00:54;;;;;;;15.95;10.80;;;11.20;99.90;;;;;;5025037;28;20502;-72
2022/04/23 07:03:20;;;;;;;13.88;9.40;;;11.30;99.90;;;;;;5025072;28;20038;-73
2022/04/23 07:05:46;;;;;;;15.68;11.20;;;11.40;99.90;;;;;;4972911;28;20077;-73
2022/04/23 07:08:12;;;;;;;15.13;10.95;;;11.50;99.90;;;;;;5007447;28;20042;-73
2022/04/23 07:10:38;;;;;;;14.98;10.65;;;11.60;99.90;;;;;;5024907;28;20459;-74
2022/04/23 07:13:04;;;;;;;15.82;11.18;;;11.80;99.90;;;;;;5022320;28;20510;-72
2022/04/23 07:15:31;;;;;;;16.75;11.10;;;11.90;99.90;;;;;;5007744;28;20041;-73
2022/04/23 07:17:57;;;;;;;15.77;10.77;;;11.90;99.90;;;;;;5024762;28;20130;-73
2022/04/23 07:20:23;;;;;;;15.25;11.32;;;12.00;99.90;;;;;;5008312;28;20047;-72
2022/04/23 07:25:36;;;;;;;14.73;9.98;;;12.20;99.90;;;;;;4992028;28;20502;-73
2022/04/23 07:28:03;;;;;;;16.60;10.73;;;12.30;99.90;;;;;;5024773;28;20042;-73
2022/04/23 07:30:29;;;;;;;14.68;10.07;;;12.40;99.90;;;;;;4975835;28;20503;-73
2022/04/23 07:32:56;;;;;;;13.65;10.38;;;12.50;99.90;;;;;;5024759;28;20050;-74
2022/04/23 07:38:24;;;;;;;13.43;8.70;;;12.70;99.90;;;;;;4987258;28;20046;-73
2022/04/23 07:40:51;;;;;;;13.27;9.70;;;12.70;98.80;;;;;;4988583;28;20030;-74
2022/04/23 07:43:17;;;;;;;13.73;9.45;;;12.80;98.20;;;;;;4991791;28;20085;-73
2022/04/23 07:45:45;;;;;;;12.10;9.48;;;12.80;97.00;;;;;;4991574;28;20096;-73
2022/04/23 07:48:11;;;;;;;11.35;8.63;;;12.80;96.60;;;;;;4972856;28;20399;-73
2022/04/23 07:50:39;;;;;;;14.60;9.40;;;12.90;97.10;;;;;;5019350;28;20046;-73
2022/04/23 07:53:07;;;;;;;12.25;8.82;;;12.90;96.50;;;;;;4972696;28;20058;-73
2022/04/23 07:55:35;;;;;;;12.57;9.55;;;12.90;95.30;;;;;;4988983;28;20034;-73
2022/04/23 07:58:01;;;;;;;13.35;8.20;;;12.90;95.60;;;;;;5024458;28;20066;-73
2022/04/23 08:00:28;;;;;;;11.75;7.90;;;13.00;95.10;;;;;;5024774;28;20045;-72
2022/04/23 08:02:53;;;;;;;11.38;8.30;;;13.10;95.40;;;;;;5003780;28;20633;-73
2022/04/23 08:05:19;;;;;;;12.55;9.07;;;13.10;94.80;;;;;;4963379;28;20070;-72
2022/04/23 08:07:45;;;;;;;13.77;8.82;;;13.30;94.30;;;;;;5017416;28;20410;-73
2022/04/23 08:10:11;;;;;;;12.00;9.93;;;13.30;94.50;;;;;;4991958;28;20125;-73
2022/04/23 08:12:37;;;;;;;12.60;7.15;;;13.30;94.10;;;;;;4971958;28;20108;-74
2022/04/23 08:15:04;;;;;;;12.23;9.57;;;13.50;93.10;;;;;;5007435;28;20442;-74
2022/04/23 08:17:30;;;;;;;13.90;8.73;;;13.50;93.20;;;;;;5019953;28;20125;-74
2022/04/23 08:19:56;;;;;;;12.55;9.57;;;13.60;93.50;;;;;;5007116;28;20138;-74
2022/04/23 08:22:22;;;;;;;12.98;9.18;;;13.60;93.80;;;;;;5024772;28;20046;-74
2022/04/23 08:24:47;;;;;;;14.38;9.57;;;13.80;93.50;;;;;;4991361;28;20043;-73
2022/04/23 08:27:13;;;;;;;13.10;9.68;;;13.90;91.00;;;;;;4991266;28;20045;-75
2022/04/23 08:32:23;;;;;;;12.02;9.70;;;13.90;92.90;;;;;;4991605;28;20043;-74
2022/04/23 08:34:48;;;;;;;13.25;9.68;;;14.00;91.30;;;;;;4991239;28;20388;-73
2022/04/23 08:37:14;;;;;;;13.85;9.98;;;14.00;92.00;;;;;;4975163;28;20076;-74
2022/04/23 08:39:40;;;;;;;13.80;10.32;;;14.10;91.40;;;;;;4991447;28;20125;-73
2022/04/23 08:42:06;;;;;;;13.27;9.77;;;14.10;92.30;;;;;;5023993;28;20042;-73
2022/04/23 08:44:32;;;;;;;16.00;9.43;;;14.10;89.20;;;;;;4971370;28;20399;-73
2022/04/23 08:46:58;;;;;;;10.88;7.68;;;14.20;91.20;;;;;;4963083;28;20049;-73
2022/04/23 08:49:30;;;;;;;15.55;10.05;;;14.30;91.20;;;;;;4995109;28;20046;-74
2022/04/23 08:51:59;;;;;;;;;;;14.20;88.50;;;;;;5027975;28;20042;-73
2022/04/23 08:54:25;;;;;;;13.15;9.25;;;14.20;90.00;;;;;;4991468;28;19917;-73
2022/04/23 08:56:51;;;;;;;14.02;9.50;;;14.30;91.00;;;;;;5012842;28;20034;-73
2022/04/23 08:59:17;;;;;;;12.68;9.52;;;14.40;89.20;;;;;;5027275;28;20069;-73
2022/04/23 09:01:44;;;;;;;14.23;10.55;;;14.40;90.40;;;;;;5027332;28;20129;-74
2022/04/23 09:04:11;;;;;;;12.98;9.68;;;14.50;87.60;;;;;;5001922;28;20498;-74
2022/04/23 09:06:43;;;;;;;12.60;10.05;;;14.50;89.80;;;;;;5026729;28;20060;-74
2022/04/23 09:09:22;;;;;;;13.63;9.53;;;14.70;90.10;;;;;;4978566;28;20125;-74
2022/04/23 09:11:58;;;;;;;15.77;9.63;;;14.70;82.80;;;;;;5011150;28;20292;-73
2022/04/23 09:14:29;;;;;;;12.35;8.43;;;14.80;85.40;;;;;;4978066;28;20072;-74
2022/04/23 09:25:44;;;;;;;12.05;9.80;;;15.00;82.00;;;;;;4997378;28;20054;-74
2022/04/23 09:28:23;;;;;;;11.50;9.18;;;15.20;81.30;;;;;;4977352;28;20053;-74
2022/04/23 09:30:51;;;;;;;12.63;8.70;;;15.20;81.40;;;;;;4990456;28;20077;-73
2022/04/23 09:33:18;;;;;;;12.18;8.13;;;15.30;76.40;;;;;;4971676;28;20038;-73
2022/04/23 09:36:01;;;;;;;12.40;9.38;;;15.40;80.10;;;;;;5009584;28;20066;-73
2022/04/23 09:38:28;;;;;;;15.05;9.75;;;15.50;75.60;;;;;;4991714;28;20038;-74
2022/04/23 09:40:55;;;;;;;14.80;8.85;;;15.50;73.60;;;;;;5025383;28;20454;-73
2022/04/23 09:43:25;;;;;;;11.07;8.90;;;15.60;81.80;;;;;;5009417;28;20038;-73
2022/04/23 09:46:09;;;;;;;14.20;8.95;;;15.60;70.00;;;;;;5009433;28;20092;-74
2022/04/23 09:48:38;;;;;;;15.27;8.25;;;15.80;77.70;;;;;;4992965;28;20084;-74
2022/04/23 09:51:05;;;;;;;12.10;9.98;;;15.90;69.90;;;;;;5008820;28;20046;-74
2022/04/23 09:53:30;;;;;;;15.05;10.10;;;16.00;73.60;;;;;;4973844;28;20125;-75
2022/04/23 09:55:59;;;;;;;17.10;9.77;;;16.10;70.70;;;;;;4982838;28;20570;-75
2022/04/23 09:58:27;;;;;;;12.38;8.40;;;15.90;67.90;;;;;;4977362;28;20042;-75
2022/04/23 10:00:53;;;;;;;10.73;8.40;;;16.00;68.50;;;;;;5009077;28;20084;-75
2022/04/23 10:03:23;;;;;;;15.63;9.57;;;15.90;68.30;;;;;;4973158;28;20050;-75
2022/04/23 10:05:49;;;;;;;12.20;8.18;;;16.00;65.70;;;;;;5014179;28;20035;-74
2022/04/23 10:08:23;;;;;;;12.18;9.18;;;16.10;65.70;;;;;;4992689;28;20049;-75
2022/04/23 10:10:54;;;;;;;14.57;9.32;;;16.00;63.50;;;;;;4974227;28;20042;-75
2022/04/23 10:13:22;;;;;;;14.05;9.30;;;15.90;65.20;;;;;;4989126;28;20050;-74
2022/04/23 10:15:48;;;;;;;12.05;8.82;;;15.90;65.80;;;;;;5006332;28;20089;-74
2022/04/23 10:18:15;;;;;;;11.52;9.07;;;16.00;66.40;;;;;;5006268;28;20177;-74
2022/04/23 10:20:52;;;;;;;14.80;8.60;;;16.20;69.40;;;;;;4989856;28;20066;-75
2022/04/23 10:23:29;;;;;;;13.40;9.18;;;16.30;65.90;;;;;;4992809;28;20043;-75
2022/04/23 10:26:25;;;;;;;12.57;7.63;;;16.50;66.70;;;;;;5025367;28;20141;-75
2022/04/23 10:28:51;;;;;;;12.43;9.20;;;16.50;64.80;;;;;;5007173;28;20041;-74
2022/04/23 10:31:17;;;;;;;12.98;8.38;;;16.50;64.90;;;;;;5024766;28;20046;-73
2022/04/23 10:33:50;;;;;;;11.88;8.35;;;16.60;64.40;;;;;;4986274;28;20049;-74
2022/04/23 10:36:16;;;;;;;12.00;8.90;;;16.70;64.70;;;;;;4997308;28;20049;-74
2022/04/23 10:38:45;;;;;;;11.95;9.43;;;16.90;65.60;;;;;;4976870;28;20038;-74
2022/04/23 10:41:12;;;;;;;11.43;9.15;;;16.80;64.20;;;;;;4973171;28;20038;-74
2022/04/23 10:43:57;;;;;;;10.88;9.35;;;16.80;61.50;;;;;;5016725;28;20089;-75
2022/04/23 10:46:39;;;;;;;11.15;8.75;;;16.80;60.50;;;;;;5002742;28;20050;-73
2022/04/23 10:49:25;;;;;;;12.75;8.63;;;16.70;60.60;;;;;;4976909;28;20121;-73
2022/04/23 10:51:54;;;;;;;14.40;9.45;;;17.00;62.20;;;;;;4975055;28;20035;-74
2022/04/23 10:54:40;;;;;;;13.57;8.50;;;17.00;63.70;;;;;;4972866;28;20042;-74
2022/04/23 10:57:15;;;;;;;9.68;6.00;;;17.10;63.60;;;;;;4966499;28;20050;-74
2022/04/23 10:59:48;;;;;;;12.02;8.60;;;17.30;62.40;;;;;;5022917;28;20061;-74
2022/04/23 11:02:19;;;;;;;11.02;7.35;;;17.30;59.50;;;;;;4992701;28;20046;-74
2022/04/23 11:13:53;;;;;;;10.43;8.00;;;17.50;58.50;;;;;;5022609;28;20038;-73
2022/04/23 11:16:21;;;;;;;11.95;7.70;;;17.40;59.20;;;;;;4987411;28;20039;-73
2022/04/23 11:18:49;;;;;;;11.75;8.30;;;17.30;58.00;;;;;;4988494;28;20434;-73
2022/04/23 11:21:23;;;;;;;11.85;8.52;;;17.40;56.10;;;;;;4976451;28;20064;-73
2022/04/23 11:23:49;;;;;;;12.00;8.57;;;17.50;57.10;;;;;;5025352;28;20042;-73
2022/04/23 11:26:18;;;;;;;10.05;7.70;;;17.40;58.10;;;;;;4976689;28;20104;-73
2022/04/23 11:28:45;;;;;;;12.02;9.07;;;17.50;57.30;;;;;;5007799;28;20092;-74
2022/04/23 11:31:13;;;;;;;11.38;9.15;;;17.30;56.20;;;;;;4994410;28;20042;-74
2022/04/23 11:33:50;;;;;;;12.07;8.85;;;17.40;59.00;;;;;;4977548;28;20046;-74
2022/04/23 11:36:16;;;;;;;11.38;7.85;;;17.50;60.00;;;;;;5020134;28;20056;-74
2022/04/23 11:38:42;;;;;;;14.70;8.98;;;17.50;57.00;;;;;;5009078;28;20042;-74
2022/04/23 11:41:08;;;;;;;11.68;7.95;;;17.60;56.70;;;;;;5025145;28;20046;-73
2022/04/23 11:43:37;;;;;;;13.27;7.95;;;17.60;56.40;;;;;;4992822;28;20486;-74
2022/04/23 11:46:06;;;;;;;12.43;7.95;;;17.60;58.10;;;;;;4996220;28;20559;-74
2022/04/23 11:48:49;;;;;;;11.55;8.55;;;17.50;57.50;;;;;;4984852;28;20449;-73
2022/04/23 11:51:15;;;;;;;13.27;8.93;;;17.80;57.60;;;;;;4979723;28;20453;-74
2022/04/23 11:54:00;;;;;;;13.63;7.90;;;17.70;55.10;;;;;;5004960;28;20076;-74
2022/04/23 11:56:28;;;;;;;12.20;8.43;;;17.70;55.20;;;;;;4992356;28;20483;-74
2022/04/23 11:58:59;;;;;;;10.20;7.15;;;17.80;56.30;;;;;;5025373;28;20042;-74
2022/04/23 12:01:26;;;;;;;11.15;7.82;;;17.90;58.10;;;;;;5008815;28;20050;-74
2022/04/23 12:03:53;;;;;;;10.43;7.22;;;17.90;54.90;;;;;;4992466;28;20043;-74
2022/04/23 12:06:18;;;;;;;13.82;8.13;;;17.90;56.30;;;;;;4971437;28;20092;-73
2022/04/23 12:08:44;;;;;;;10.57;7.65;;;17.70;53.10;;;;;;4956719;28;20518;-74
2022/04/23 12:11:24;;;;;;;12.65;8.23;;;17.70;52.80;;;;;;4979232;28;20042;-74
2022/04/23 12:13:51;;;;;;;13.43;7.05;;;17.60;52.20;;;;;;4973187;28;20074;-74
2022/04/23 12:16:38;;;;;;;10.90;7.40;;;17.60;53.80;;;;;;4956671;28;20097;-74
2022/04/23 12:19:08;;;;;;;11.57;6.35;;;17.80;54.00;;;;;;4967165;28;20042;-74
2022/04/23 12:21:36;;;;;;;9.30;6.38;;;17.80;53.10;;;;;;5004776;28;20443;-74
2022/04/23 12:24:03;;;;;;;12.00;7.00;;;17.90;54.70;;;;;;5011430;28;20495;-74
2022/04/23 12:26:34;;;;;;;13.70;6.85;;;18.00;55.30;;;;;;5009115;28;20047;-74
2022/04/23 12:42:33;;;;;;;8.63;6.55;;;17.90;51.40;;;;;;4995236;28;20042;-84
2022/04/23 12:44:58;;;;;;;10.85;6.75;;;17.80;49.10;;;;;;4980140;28;20038;-83
2022/04/23 12:47:29;;;;;;;11.73;7.45;;;17.80;50.40;;;;;;4995245;28;20038;-83
2022/04/23 12:50:00;;;;;;;11.02;6.50;;;17.80;50.80;;;;;;4998374;28;20033;-83
2022/04/23 12:52:44;;;;;;;8.90;6.10;;;17.90;52.90;;;;;;4990443;28;20030;-82
2022/04/23 12:55:21;;;;;;;9.13;6.78;;;18.10;52.00;;;;;;4999848;28;20606;-82
2022/04/23 12:58:04;;;;;;;10.05;6.57;;;18.10;50.70;;;;;;4997921;28;20084;-83
2022/04/23 13:00:32;;;;;;;14.77;6.25;;;17.90;49.40;;;;;;4982045;28;20049;-73
2022/04/23 13:03:00;;;;;;;13.80;7.18;;;18.00;51.20;;;;;;4995233;28;20042;-82
2022/04/23 13:05:27;;;;;;;12.43;6.70;;;18.00;50.10;;;;;;4993043;28;20076;-75
2022/04/23 13:10:37;;;;;;;11.50;7.20;;;18.10;51.90;;;;;;5028746;28;20053;-75
2022/04/23 13:13:06;;;;;;;9.57;6.93;;;18.00;51.60;;;;;;4985287;28;20046;-76
2022/04/23 13:15:34;;;;;;;13.35;6.68;;;18.00;52.00;;;;;;4991070;28;20200;-76
2022/04/23 13:18:00;;;;;;;11.43;6.80;;;18.20;52.30;;;;;;4994095;28;20113;-75
2022/04/23 13:20:25;;;;;;;10.18;7.05;;;18.10;49.50;;;;;;5026692;28;20137;-76
2022/04/23 13:22:51;;;;;;;9.82;6.97;;;17.90;48.10;;;;;;4994273;28;20125;-76
2022/04/23 13:25:17;;;;;;;9.80;6.30;;;17.90;48.20;;;;;;5026593;28;20406;-75
2022/04/23 13:27:43;;;;;;;12.60;5.97;;;17.80;50.70;;;;;;4977956;28;20474;-78